This is the latest recevied weather packets stored in our database for station/object E25RIV-1. If no packets are shown the sender has not sent any weather packets the latest 10 day(s).
| Time | Temp. | Humidity | Pressure | Rain* | Wind** | Luminosity | Snow |
|---|---|---|---|---|---|---|---|
| 1778134642 | 32.78° C | 74% | 1002 hPa | - | - | 0 W/m² | - |
| 1778134018 | 33.33° C | 75% | 1002 hPa | - | - | 0 W/m² | - |
| 1778133394 | 34.44° C | 70% | 1001 hPa | - | - | 0 W/m² | - |
| 1778132769 | 34.44° C | 67% | 1001 hPa | - | - | 0 W/m² | - |
| 1778132145 | 35° C | 66% | 1001 hPa | - | - | 0 W/m² | - |
| 1778131521 | 35° C | 67% | 1001 hPa | - | - | 0 W/m² | - |
| 1778130896 | 35.56° C | 66% | 1002 hPa | - | - | 0 W/m² | - |
| 1778130273 | 36.11° C | 61% | 1000 hPa | - | - | 0 W/m² | - |
| 1778129648 | 36.67° C | 59% | 998 hPa | - | - | 0 W/m² | - |
| 1778129024 | 35.56° C | 60% | 999 hPa | - | - | 0 W/m² | - |
| 1778128400 | 36.11° C | 60% | 999 hPa | - | - | 0 W/m² | - |
| 1778127775 | 36.67° C | 59% | 999 hPa | - | - | 0 W/m² | - |
| 1778127151 | 36.11° C | 59% | 998 hPa | - | - | 0 W/m² | - |
| 1778126528 | 36.67° C | 59% | 998 hPa | - | - | 0 W/m² | - |
| 1778125903 | 36.11° C | 63% | 1000 hPa | - | - | 0 W/m² | - |
| 1778125280 | 35.56° C | 63% | 1000 hPa | - | - | 0 W/m² | - |
| 1778124656 | 35° C | 67% | 1001 hPa | - | - | 0 W/m² | - |
| 1778124032 | 35.56° C | 68% | 1002 hPa | - | - | 0 W/m² | - |
| 1778123408 | 35° C | 70% | 1002 hPa | - | - | 0 W/m² | - |
| 1778122783 | 35° C | 69% | 1002 hPa | - | - | 0 W/m² | - |
| 1778122159 | 34.44° C | 70% | 1003 hPa | - | - | 0 W/m² | - |
| 1778121535 | 35° C | 70% | 1002 hPa | - | - | 0 W/m² | - |
| 1778120911 | 34.44° C | 74% | 1002 hPa | - | - | 0 W/m² | - |
| 1778120287 | 33.89° C | 78% | 1003 hPa | - | - | 0 W/m² | - |
| 1778119663 | 33.33° C | 81% | 1004 hPa | - | - | 0 W/m² | - |
* Rain since midnight (hover to see other rain measurements)
** Current wind speed in m/s (hover to see current wind gust speed)